Time;durP1;ratioP1;P1;durP2;ratioP2;P2;SDS_P1;SDS_P2;PMS_P1;PMS_P2;Temp;Humidity;BMP_temperature;BMP_pressure;BME280_temperature;BME280_humidity;BME280_pressure;Samples;Min_cycle;Max_cycle;Signal;HPM_P1;HPM_P2
2021/03/30 00:02:05;;;;;;;34.63;13.57;;;;;;;4.48;100.00;103045.50;5269186;28;20036;-77
2021/03/30 00:04:35;;;;;;;42.90;16.02;;;;;;;4.43;100.00;103048.38;5272137;28;20036;-78
2021/03/30 00:07:06;;;;;;;41.70;15.60;;;;;;;4.41;100.00;103055.53;5270898;28;20397;-78
2021/03/30 00:09:37;;;;;;;45.97;16.73;;;;;;;4.40;100.00;103061.81;5270063;28;20028;-78
2021/03/30 00:12:08;;;;;;;38.03;13.95;;;;;;;4.35;100.00;103061.16;5270943;28;20028;-78
2021/03/30 00:14:38;;;;;;;30.90;11.65;;;;;;;4.15;100.00;103065.59;5271130;28;20020;-78
2021/03/30 00:17:09;;;;;;;43.95;16.25;;;;;;;4.09;100.00;103057.91;5271087;28;20047;-78
2021/03/30 00:19:39;;;;;;;41.22;15.05;;;;;;;4.04;100.00;103059.91;5257933;28;20047;-78
2021/03/30 00:22:10;;;;;;;38.47;15.32;;;;;;;4.02;100.00;103052.97;5271161;28;20552;-78
2021/03/30 00:24:40;;;;;;;39.33;14.02;;;;;;;4.05;100.00;103060.78;5270730;28;20024;-78
2021/03/30 00:27:10;;;;;;;36.30;14.25;;;;;;;4.09;100.00;103055.25;5269908;28;20063;-79
2021/03/30 00:29:42;;;;;;;43.58;16.40;;;;;;;4.31;100.00;103049.81;5267300;28;20487;-79
2021/03/30 00:32:13;;;;;;;38.17;16.02;;;;;;;4.34;100.00;103054.97;5267263;28;20145;-78
2021/03/30 00:34:44;;;;;;;45.28;17.77;;;;;;;4.27;100.00;103058.00;5269177;28;20053;-78
2021/03/30 00:37:14;;;;;;;43.05;15.60;;;;;;;4.19;100.00;103053.03;5270350;28;20028;-78
2021/03/30 00:39:45;;;;;;;46.33;15.88;;;;;;;4.10;100.00;103046.34;5270207;28;20032;-78
2021/03/30 00:42:22;;;;;;;41.75;16.52;;;;;;;4.01;100.00;103041.47;5266760;28;20039;-78
2021/03/30 00:44:53;;;;;;;43.53;15.75;;;;;;;4.04;100.00;103040.47;5266406;28;20374;-79
2021/03/30 00:47:24;;;;;;;45.40;17.20;;;;;;;4.08;100.00;103045.56;5268867;28;20027;-78
2021/03/30 00:49:55;;;;;;;37.63;15.32;;;;;;;4.09;100.00;103046.44;5270779;28;20077;-78
2021/03/30 00:52:27;;;;;;;46.72;16.58;;;;;;;4.05;100.00;103047.50;5270635;28;20461;-78
2021/03/30 00:54:57;;;;;;;47.72;16.33;;;;;;;4.00;100.00;103038.88;5270680;28;20119;-77
2021/03/30 00:57:28;;;;;;;43.70;16.40;;;;;;;3.95;100.00;103048.84;5270706;28;20460;-78
2021/03/30 00:59:58;;;;;;;45.33;15.80;;;;;;;3.88;100.00;103048.28;5269710;28;20039;-78
2021/03/30 01:02:29;;;;;;;45.17;15.98;;;;;;;3.82;100.00;103054.72;5270416;28;20028;-78
2021/03/30 01:05:00;;;;;;;40.60;15.60;;;;;;;3.74;100.00;103051.53;5270086;28;20020;-78
2021/03/30 01:07:46;;;;;;;42.22;15.27;;;;;;;3.67;100.00;103043.94;5269442;28;20023;-77
2021/03/30 01:10:41;;;;;;;45.92;13.63;;;;;;;3.58;100.00;103040.75;5270638;28;20107;-77
2021/03/30 01:13:28;;;;;;;40.72;14.27;;;;;;;3.56;100.00;103045.25;5284351;28;20491;-77
2021/03/30 01:16:11;;;;;;;46.40;16.08;;;;;;;3.57;100.00;103051.44;5267986;28;20024;-77
2021/03/30 01:18:49;;;;;;;41.70;14.77;;;;;;;3.56;100.00;103055.84;5267294;28;20024;-79
2021/03/30 01:21:31;;;;;;;40.63;14.65;;;;;;;3.59;100.00;103052.22;5253571;28;20496;-79
2021/03/30 01:24:20;;;;;;;64.60;17.88;;;;;;;3.64;100.00;103053.75;5266875;28;20031;-79
2021/03/30 01:27:01;;;;;;;48.47;17.50;;;;;;;3.76;100.00;103046.16;5266624;28;20100;-78
2021/03/30 01:29:46;;;;;;;51.30;16.58;;;;;;;3.88;100.00;103051.78;5268200;28;20020;-77
2021/03/30 01:32:38;;;;;;;48.85;15.88;;;;;;;3.92;100.00;103047.22;5267759;28;20118;-78
2021/03/30 01:35:13;;;;;;;47.72;15.98;;;;;;;3.88;100.00;103045.63;5268199;28;20027;-78
2021/03/30 01:37:46;;;;;;;42.42;14.98;;;;;;;3.81;100.00;103036.19;5267681;28;20036;-78
2021/03/30 01:40:28;;;;;;;45.75;17.00;;;;;;;3.73;100.00;103048.97;5266351;28;20024;-78
2021/03/30 01:43:01;;;;;;;48.03;16.17;;;;;;;3.64;100.00;103043.13;5267268;28;20023;-78
2021/03/30 01:45:34;;;;;;;46.88;16.13;;;;;;;3.54;100.00;103044.44;5267504;28;20492;-78
2021/03/30 01:48:06;;;;;;;43.85;16.38;;;;;;;3.45;100.00;103039.53;5266687;28;20048;-78
2021/03/30 01:50:37;;;;;;;44.35;17.52;;;;;;;3.36;100.00;103038.16;5267372;28;20500;-78
2021/03/30 01:53:10;;;;;;;38.20;13.60;;;;;;;3.29;100.00;103041.13;5266901;28;20518;-78
2021/03/30 01:55:42;;;;;;;43.08;15.80;;;;;;;3.23;100.00;103042.28;5267236;28;20481;-78
2021/03/30 01:58:16;;;;;;;44.53;14.32;;;;;;;3.18;100.00;103033.63;5267145;28;20077;-77
2021/03/30 02:00:49;;;;;;;43.03;15.57;;;;;;;3.15;100.00;103028.44;5266650;28;20028;-78
2021/03/30 02:03:21;;;;;;;47.05;16.15;;;;;;;3.14;100.00;103042.66;5267174;28;20051;-78
2021/03/30 02:05:53;;;;;;;54.17;18.05;;;;;;;3.16;100.00;103037.28;5266960;28;20012;-77
2021/03/30 02:08:28;;;;;;;48.42;14.75;;;;;;;3.16;100.00;103038.13;5253154;28;20115;-77
2021/03/30 02:10:59;;;;;;;55.05;15.77;;;;;;;3.17;100.00;103031.94;5266285;28;20081;-78
2021/03/30 02:13:39;;;;;;;57.40;15.98;;;;;;;3.13;100.00;103032.97;5266180;28;20032;-79
2021/03/30 02:16:21;;;;;;;50.90;16.40;;;;;;;3.06;100.00;103026.19;5265827;28;20477;-78
2021/03/30 02:19:08;;;;;;;57.90;18.58;;;;;;;3.12;100.00;103025.94;5265869;28;20039;-78
2021/03/30 02:21:44;;;;;;;48.15;18.40;;;;;;;3.16;100.00;103022.22;5265921;28;20489;-78
2021/03/30 02:24:17;;;;;;;54.38;17.17;;;;;;;3.14;100.00;103023.22;5266049;28;20380;-78
2021/03/30 02:26:50;;;;;;;54.67;17.08;;;;;;;3.07;100.00;103019.97;5265526;28;20023;-78
2021/03/30 02:29:25;;;;;;;42.58;15.30;;;;;;;2.98;100.00;103010.63;5265427;28;20029;-78
2021/03/30 02:31:57;;;;;;;;;;;;;;;2.90;100.00;103017.16;5265859;28;20279;-78
2021/03/30 02:34:29;;;;;;;42.75;15.45;;;;;;;2.81;100.00;103011.31;5265586;28;19908;-79
2021/03/30 02:37:00;;;;;;;49.05;17.48;;;;;;;2.72;100.00;103003.75;5265716;28;20028;-78
2021/03/30 02:39:31;;;;;;;41.63;15.82;;;;;;;2.66;100.00;103009.31;5266877;28;20027;-77
2021/03/30 02:42:01;;;;;;;41.72;14.52;;;;;;;2.61;100.00;103003.31;5265829;28;20035;-79
2021/03/30 02:44:33;;;;;;;51.25;16.60;;;;;;;2.58;100.00;103004.28;5265564;28;20024;-78
2021/03/30 02:47:03;;;;;;;50.95;14.90;;;;;;;2.56;100.00;103002.63;5265409;28;20031;-78
2021/03/30 02:49:35;;;;;;;42.90;15.95;;;;;;;2.52;100.00;103003.69;5265779;28;20489;-79
2021/03/30 02:52:06;;;;;;;51.70;15.68;;;;;;;2.49;100.00;102996.72;5265022;28;20020;-79
2021/03/30 02:54:37;;;;;;;49.63;16.55;;;;;;;2.52;100.00;102999.25;5265339;28;20032;-78
2021/03/30 02:57:09;;;;;;;51.00;17.90;;;;;;;2.53;100.00;103006.28;5269296;28;20035;-78
2021/03/30 02:59:40;;;;;;;41.33;15.88;;;;;;;2.49;100.00;103006.44;5269196;28;20024;-78
2021/03/30 03:02:13;;;;;;;55.15;17.30;;;;;;;2.42;100.00;102994.38;5268870;28;20038;-79
2021/03/30 03:04:48;;;;;;;54.60;18.95;;;;;;;2.33;100.00;103001.75;5269904;28;20049;-78
2021/03/30 03:07:19;;;;;;;44.15;16.27;;;;;;;2.26;100.00;102997.66;5270658;28;20023;-78
2021/03/30 03:09:52;;;;;;;37.85;14.18;;;;;;;2.19;100.00;103009.38;5271716;28;20106;-78
2021/03/30 03:12:22;;;;;;;39.03;12.75;;;;;;;2.14;100.00;103005.19;5271456;28;20020;-78
2021/03/30 03:14:54;;;;;;;41.08;14.73;;;;;;;2.10;100.00;103007.09;5270438;28;20378;-78
2021/03/30 03:17:26;;;;;;;44.35;15.27;;;;;;;2.06;100.00;103001.06;5285802;28;20024;-78
2021/03/30 03:19:59;;;;;;;48.15;16.13;;;;;;;2.04;100.00;102996.72;5259826;28;20023;-78
2021/03/30 03:22:30;;;;;;;59.88;19.50;;;;;;;2.03;100.00;103001.16;5270051;28;20028;-78
2021/03/30 03:25:01;;;;;;;52.72;17.17;;;;;;;2.02;100.00;102999.44;5270641;28;20016;-78
2021/03/30 03:27:34;;;;;;;53.33;19.48;;;;;;;2.19;100.00;102996.13;5271123;28;20057;-79
2021/03/30 03:30:06;;;;;;;62.95;18.88;;;;;;;2.42;100.00;103005.00;5270868;28;20043;-78
2021/03/30 03:32:37;;;;;;;66.60;21.42;;;;;;;2.52;100.00;103004.56;5269579;28;20034;-78
2021/03/30 03:35:11;;;;;;;60.28;19.77;;;;;;;2.54;100.00;103001.84;5270506;28;20477;-78
2021/03/30 03:37:44;;;;;;;64.50;20.90;;;;;;;2.46;100.00;103001.25;5270843;28;20024;-78
2021/03/30 03:40:16;;;;;;;55.50;17.40;;;;;;;2.39;100.00;103007.75;5270635;28;20024;-78
2021/03/30 03:42:46;;;;;;;55.55;18.98;;;;;;;2.31;100.00;103003.63;5268868;28;20032;-79
2021/03/30 03:45:16;;;;;;;61.53;20.95;;;;;;;2.28;100.00;103005.53;5268005;28;20256;-79
2021/03/30 03:47:47;;;;;;;61.58;20.33;;;;;;;2.24;100.00;103009.19;5266862;28;20075;-79
2021/03/30 03:50:19;;;;;;;58.15;19.08;;;;;;;2.21;100.00;103004.91;5267084;28;20066;-79
2021/03/30 03:52:53;;;;;;;59.97;19.27;;;;;;;2.19;100.00;103006.72;5268238;28;20437;-77
2021/03/30 03:55:24;;;;;;;52.50;18.33;;;;;;;2.20;100.00;103005.81;5269756;28;20024;-78
2021/03/30 03:58:01;;;;;;;52.80;17.77;;;;;;;2.20;100.00;103005.81;5269089;28;20035;-79
2021/03/30 04:00:31;;;;;;;55.15;19.33;;;;;;;2.21;100.00;103004.00;5267609;28;20111;-79
2021/03/30 04:03:12;;;;;;;58.38;20.80;;;;;;;2.22;100.00;103013.72;5267847;28;20114;-79
2021/03/30 04:05:52;;;;;;;50.90;17.90;;;;;;;2.22;100.00;103006.63;5267958;28;20084;-79
2021/03/30 04:08:25;;;;;;;55.00;17.38;;;;;;;2.23;100.00;103004.84;5255460;28;20110;-77
2021/03/30 04:10:57;;;;;;;52.05;17.70;;;;;;;2.25;100.00;103006.50;5268759;28;20477;-77
2021/03/30 04:13:31;;;;;;;56.05;18.17;;;;;;;2.26;100.00;103010.00;5269198;28;20481;-78
2021/03/30 04:16:04;;;;;;;51.03;18.20;;;;;;;2.27;100.00;103011.75;5268820;28;20028;-78
2021/03/30 04:18:38;;;;;;;50.45;16.85;;;;;;;2.27;100.00;103006.44;5270650;28;20477;-78
2021/03/30 04:21:15;;;;;;;47.67;16.35;;;;;;;2.23;100.00;103010.13;5270320;28;20035;-78
2021/03/30 04:23:45;;;;;;;36.95;14.32;;;;;;;2.21;100.00;103014.59;5269289;28;20032;-78
2021/03/30 04:26:16;;;;;;;45.25;16.05;;;;;;;2.20;100.00;103012.88;5270672;28;20023;-78
2021/03/30 04:28:46;;;;;;;39.67;15.45;;;;;;;2.21;100.00;103006.66;5270319;28;20032;-78
2021/03/30 04:31:17;;;;;;;41.00;15.60;;;;;;;2.19;100.00;103012.03;5270408;28;20028;-78
2021/03/30 04:33:47;;;;;;;40.88;15.88;;;;;;;2.19;100.00;103014.69;5270191;28;20020;-77
2021/03/30 04:36:18;;;;;;;50.47;17.80;;;;;;;2.20;100.00;103010.25;5270554;28;20071;-78
2021/03/30 04:38:48;;;;;;;36.38;14.63;;;;;;;2.21;100.00;103014.59;5269386;28;20469;-77
2021/03/30 04:41:19;;;;;;;47.88;15.77;;;;;;;2.21;100.00;103018.16;5270300;28;20107;-78
2021/03/30 04:43:49;;;;;;;42.38;15.57;;;;;;;2.22;100.00;103011.06;5269430;28;20048;-79
2021/03/30 04:46:20;;;;;;;43.95;16.17;;;;;;;2.23;100.00;103013.63;5265485;28;20133;-79
2021/03/30 04:48:50;;;;;;;46.17;16.02;;;;;;;2.22;100.00;103009.28;5267367;28;20081;-78
2021/03/30 04:51:21;;;;;;;44.63;15.57;;;;;;;2.19;100.00;103014.69;5266751;28;20032;-79
2021/03/30 04:53:51;;;;;;;39.20;15.05;;;;;;;2.19;100.00;103016.47;5267713;28;20024;-79
2021/03/30 04:56:21;;;;;;;35.85;15.18;;;;;;;2.17;100.00;103027.13;5266982;28;20384;-79
2021/03/30 04:58:52;;;;;;;40.50;15.13;;;;;;;2.14;100.00;103019.28;5266777;28;20046;-79
2021/03/30 05:01:22;;;;;;;45.53;14.98;;;;;;;2.06;100.00;103022.25;5266547;28;20385;-79
2021/03/30 05:03:53;;;;;;;45.28;16.02;;;;;;;2.05;100.00;103024.94;5266942;28;20165;-79
2021/03/30 05:06:23;;;;;;;41.97;14.73;;;;;;;2.05;100.00;103019.63;5266738;28;20473;-78
2021/03/30 05:08:54;;;;;;;45.63;15.68;;;;;;;2.02;100.00;103025.06;5267705;28;20103;-79
2021/03/30 05:11:24;;;;;;;45.80;16.55;;;;;;;1.99;100.00;103020.72;5266280;28;20135;-79
2021/03/30 05:13:55;;;;;;;47.30;16.98;;;;;;;2.02;100.00;103025.06;5267147;28;20095;-79
2021/03/30 05:16:25;;;;;;;54.33;16.90;;;;;;;2.05;100.00;103023.13;5266456;28;20016;-79
2021/03/30 05:18:56;;;;;;;49.67;16.63;;;;;;;2.04;100.00;103034.66;5266387;28;20028;-79
2021/03/30 05:21:26;;;;;;;43.95;16.55;;;;;;;2.02;100.00;103035.66;5266619;28;20512;-78
2021/03/30 05:23:57;;;;;;;55.47;17.38;;;;;;;2.00;100.00;103037.47;5265839;28;20184;-78
2021/03/30 05:26:27;;;;;;;48.08;16.60;;;;;;;2.01;100.00;103041.88;5259029;28;20540;-78
2021/03/30 05:28:58;;;;;;;45.47;16.58;;;;;;;2.08;100.00;103040.72;5269902;28;20039;-78
2021/03/30 05:31:28;;;;;;;50.20;16.52;;;;;;;2.12;100.00;103041.47;5269249;28;20024;-77
2021/03/30 05:33:59;;;;;;;47.88;16.23;;;;;;;2.15;100.00;103047.50;5268227;28;20020;-78
2021/03/30 05:36:30;;;;;;;40.50;15.30;;;;;;;2.39;100.00;103043.03;5268070;28;20020;-78
2021/03/30 05:39:00;;;;;;;31.65;12.15;;;;;;;2.76;100.00;103054.81;5269450;28;20024;-78
2021/03/30 05:41:31;;;;;;;31.48;12.75;;;;;;;3.19;100.00;103059.22;5269311;28;20028;-78
2021/03/30 05:44:02;;;;;;;40.40;13.23;;;;;;;3.54;100.00;103064.81;5269348;28;20028;-79
2021/03/30 05:46:32;;;;;;;31.98;12.00;;;;;;;4.04;100.00;103059.06;5270247;28;20376;-78
2021/03/30 05:49:03;;;;;;;35.10;13.18;;;;;;;4.39;100.00;103060.09;5269748;28;20031;-78
2021/03/30 05:51:38;;;;;;;33.58;13.70;;;;;;;4.70;100.00;103064.78;5268917;28;20424;-78
2021/03/30 05:54:10;;;;;;;41.50;14.38;;;;;;;4.97;100.00;103059.94;5269589;28;20034;-78
2021/03/30 05:56:41;;;;;;;35.92;14.40;;;;;;;5.09;100.00;103067.31;5269528;28;20035;-78
2021/03/30 05:59:13;;;;;;;45.55;14.85;;;;;;;5.08;100.00;103067.38;5268763;28;20099;-78
2021/03/30 06:01:45;;;;;;;39.15;14.52;;;;;;;4.96;100.00;103071.50;5269084;28;20056;-79
2021/03/30 06:04:17;;;;;;;33.22;13.93;;;;;;;4.73;100.00;103072.63;5269882;28;20027;-78
2021/03/30 06:06:47;;;;;;;42.63;15.32;;;;;;;4.48;100.00;103080.91;5269975;28;20032;-78
2021/03/30 06:09:18;;;;;;;44.30;15.63;;;;;;;4.33;100.00;103079.84;5270148;28;20028;-78
2021/03/30 06:11:48;;;;;;;45.00;15.30;;;;;;;4.28;100.00;103067.69;5268552;28;20020;-78
2021/03/30 06:14:36;;;;;;;41.03;15.95;;;;;;;4.17;100.00;103081.50;5268284;28;20030;-79
2021/03/30 06:17:09;;;;;;;43.47;15.38;;;;;;;4.07;100.00;103074.88;5266978;28;20036;-79
2021/03/30 06:19:48;;;;;;;52.58;16.02;;;;;;;4.00;100.00;103078.72;5268146;28;20184;-78
2021/03/30 06:22:20;;;;;;;40.15;15.88;;;;;;;4.07;100.00;103083.69;5275772;28;20084;-77
2021/03/30 06:24:54;;;;;;;49.38;16.75;;;;;;;4.19;100.00;103090.25;5262133;28;20024;-79
2021/03/30 06:27:28;;;;;;;39.45;15.32;;;;;;;4.33;100.00;103085.16;5263015;28;20054;-80
2021/03/30 06:29:59;;;;;;;36.75;15.15;;;;;;;4.50;100.00;103088.81;5268844;28;20027;-80
2021/03/30 06:32:32;;;;;;;43.90;18.15;;;;;;;4.63;100.00;103090.81;5270392;28;20027;-79
2021/03/30 06:35:13;;;;;;;43.72;16.25;;;;;;;4.82;100.00;103092.59;5270694;28;20503;-79
2021/03/30 06:37:43;;;;;;;44.33;16.08;;;;;;;4.96;100.00;103086.59;5273413;28;20035;-79
2021/03/30 06:40:19;;;;;;;46.53;15.70;;;;;;;5.11;100.00;103096.47;5270916;28;20020;-76
2021/03/30 06:42:55;;;;;;;39.22;14.45;;;;;;;5.27;100.00;103092.16;5271641;28;20034;-79
2021/03/30 06:45:29;;;;;;;35.08;14.48;;;;;;;5.51;100.00;103087.34;5270674;28;20089;-78
2021/03/30 06:48:01;;;;;;;37.65;14.88;;;;;;;5.69;100.00;103088.22;5272230;28;20016;-77
2021/03/30 06:50:36;;;;;;;36.75;14.95;;;;;;;5.86;100.00;103092.66;5272865;28;20368;-78
2021/03/30 06:53:17;;;;;;;42.80;14.68;;;;;;;6.00;100.00;103089.28;5273482;28;20389;-77
2021/03/30 06:55:51;;;;;;;42.65;16.42;;;;;;;6.19;100.00;103090.88;5272205;28;20028;-77
2021/03/30 06:58:23;;;;;;;38.50;15.65;;;;;;;6.40;100.00;103094.19;5270694;28;20028;-77
2021/03/30 07:00:53;;;;;;;50.63;19.48;;;;;;;6.57;100.00;103092.38;5269718;28;20043;-78
2021/03/30 07:03:24;;;;;;;47.75;19.10;;;;;;;6.75;100.00;103091.34;5270256;28;20024;-78
2021/03/30 07:05:55;;;;;;;54.40;20.00;;;;;;;6.95;100.00;103093.75;5269372;28;20129;-78
2021/03/30 07:08:26;;;;;;;51.90;18.83;;;;;;;7.16;100.00;103094.31;5270982;28;20071;-78
2021/03/30 07:10:56;;;;;;;54.55;20.02;;;;;;;7.36;100.00;103097.63;5272047;28;20056;-78
2021/03/30 07:13:26;;;;;;;48.33;18.52;;;;;;;7.57;100.00;103096.34;5272027;28;20032;-77
2021/03/30 07:16:04;;;;;;;44.25;18.45;;;;;;;7.81;100.00;103103.84;5271308;28;20103;-78
2021/03/30 07:18:40;;;;;;;50.33;17.83;;;;;;;8.05;100.00;103105.88;5272097;28;20532;-77
2021/03/30 07:21:21;;;;;;;48.63;19.35;;;;;;;8.31;100.00;103103.38;5271657;28;20473;-78
2021/03/30 07:23:56;;;;;;;51.80;19.33;;;;;;;8.48;100.00;103105.91;5270910;28;20031;-79
2021/03/30 07:26:52;;;;;;;47.20;17.35;;;;;;;8.78;100.00;103099.50;5271691;28;20030;-79
2021/03/30 07:29:29;;;;;;;40.03;18.52;;;;;;;8.96;100.00;103101.00;5272970;28;20028;-78
2021/03/30 07:32:07;;;;;;;42.40;17.88;;;;;;;9.13;100.00;103101.69;5286300;28;20031;-78
2021/03/30 07:34:53;;;;;;;42.00;17.35;;;;;;;9.37;100.00;103101.88;5268683;28;20107;-79
2021/03/30 07:37:40;;;;;;;39.70;16.77;;;;;;;9.58;100.00;103101.25;5268586;28;20543;-79
2021/03/30 07:40:14;;;;;;;40.03;17.70;;;;;;;9.75;100.00;103110.84;5268421;28;20051;-79
2021/03/30 07:42:47;;;;;;;39.08;17.10;;;;;;;9.97;100.00;103110.19;5271954;28;20428;-78
2021/03/30 07:45:22;;;;;;;35.50;15.38;;;;;;;10.17;100.00;103111.47;5273419;28;20034;-79
2021/03/30 07:47:53;;;;;;;34.58;16.20;;;;;;;10.36;100.00;103105.69;5272061;28;20088;-79
2021/03/30 07:50:57;;;;;;;38.92;16.55;;;;;;;10.59;100.00;103102.22;5271621;28;20019;-79
2021/03/30 07:53:45;;;;;;;34.97;15.70;;;;;;;10.79;100.00;103107.94;5271281;28;20034;-79
2021/03/30 07:56:22;;;;;;;43.30;18.20;;;;;;;10.96;100.00;103101.34;5271821;28;20422;-79
2021/03/30 07:58:55;;;;;;;34.40;15.27;;;;;;;11.18;100.00;103100.59;5272431;28;20024;-79
2021/03/30 08:01:29;;;;;;;37.58;17.15;;;;;;;11.38;100.00;103108.00;5272909;28;20031;-80
2021/03/30 08:04:01;;;;;;;39.72;15.38;;;;;;;11.61;100.00;103115.16;5269992;28;20032;-79
2021/03/30 08:06:46;;;;;;;39.58;16.70;;;;;;;11.77;100.00;103114.84;5268831;28;20016;-77
2021/03/30 08:09:18;;;;;;;37.10;15.32;;;;;;;11.93;100.00;103117.22;5271739;28;20567;-79
2021/03/30 08:11:53;;;;;;;38.75;16.60;;;;;;;12.11;100.00;103117.63;5268541;28;20020;-79
2021/03/30 08:14:26;;;;;;;37.05;16.60;;;;;;;12.34;100.00;103118.47;5268851;28;20027;-79
2021/03/30 08:16:56;;;;;;;37.33;16.50;;;;;;;12.53;100.00;103116.00;5269831;28;20044;-79
2021/03/30 08:19:27;;;;;;;36.63;17.58;;;;;;;12.79;100.00;103118.41;5255221;28;20036;-79
2021/03/30 08:22:08;;;;;;;39.72;18.15;;;;;;;12.88;100.00;103123.06;5269086;28;20032;-80
2021/03/30 08:24:44;;;;;;;34.30;16.48;;;;;;;13.09;100.00;103115.88;5256740;28;20453;-78
2021/03/30 08:27:31;;;;;;;36.63;16.35;;;;;;;13.32;100.00;103113.16;5267879;28;20051;-80
2021/03/30 08:30:05;;;;;;;38.50;16.55;;;;;;;13.50;100.00;103111.56;5267679;28;20028;-79
2021/03/30 08:32:43;;;;;;;34.83;16.55;;;;;;;13.74;100.00;103109.47;5268367;28;20035;-80
2021/03/30 08:35:39;;;;;;;38.03;17.17;;;;;;;14.03;100.00;103113.34;5269738;28;20103;-80
2021/03/30 08:38:43;;;;;;;35.50;15.30;;;;;;;14.23;100.00;103107.91;5269245;28;20020;-79
2021/03/30 08:41:50;;;;;;;33.88;15.15;;;;;;;14.46;100.00;103107.72;5261084;28;20088;-81
2021/03/30 08:44:28;;;;;;;40.25;15.40;;;;;;;14.70;100.00;103119.03;5260036;28;20039;-80
2021/03/30 08:47:00;;;;;;;31.67;14.00;;;;;;;14.91;100.00;103109.97;5271249;28;20027;-80
2021/03/30 08:49:46;;;;;;;30.95;14.30;;;;;;;15.11;100.00;103105.44;5272264;28;20110;-80
2021/03/30 08:52:18;;;;;;;34.63;15.82;;;;;;;15.28;100.00;103113.72;5271233;28;20274;-81
2021/03/30 08:54:54;;;;;;;32.22;15.07;;;;;;;15.41;95.60;103108.03;5270718;28;20027;-80
2021/03/30 08:57:33;;;;;;;30.85;15.18;;;;;;;15.60;98.31;103111.69;5270805;28;20104;-79
2021/03/30 09:00:07;;;;;;;31.77;13.93;;;;;;;15.82;93.94;103116.00;5270320;28;20080;-80
2021/03/30 09:02:38;;;;;;;32.47;15.60;;;;;;;16.05;81.71;103111.91;5270816;28;20036;-79
2021/03/30 09:05:16;;;;;;;35.47;15.35;;;;;;;16.18;81.97;103115.16;5270098;28;20026;-79
2021/03/30 09:07:49;;;;;;;34.53;14.85;;;;;;;16.37;76.88;103116.09;5269542;28;20027;-80
2021/03/30 09:10:20;;;;;;;30.70;13.23;;;;;;;16.57;69.31;103115.00;5268600;28;20016;-81
2021/03/30 09:12:51;;;;;;;30.05;13.98;;;;;;;16.65;68.35;103120.50;5268196;28;20039;-80
2021/03/30 09:15:21;;;;;;;30.75;13.57;;;;;;;16.91;61.92;103115.22;5268053;28;20548;-80
2021/03/30 09:17:54;;;;;;;30.92;13.57;;;;;;;16.96;60.24;103120.19;5262434;28;20537;-80
2021/03/30 09:20:26;;;;;;;31.20;13.88;;;;;;;17.04;57.24;103125.72;5261523;28;20069;-81
2021/03/30 09:23:01;;;;;;;29.30;13.30;;;;;;;17.11;59.86;103120.50;5268300;28;20028;-80
2021/03/30 09:25:40;;;;;;;30.75;12.90;;;;;;;17.29;57.58;103121.38;5268625;28;20020;-80
2021/03/30 09:28:20;;;;;;;29.05;12.90;;;;;;;17.47;56.34;103127.66;5268386;28;20074;-80
2021/03/30 09:30:51;;;;;;;29.13;13.25;;;;;;;17.69;50.09;103118.16;5267766;28;20024;-79
2021/03/30 09:33:22;;;;;;;25.73;11.60;;;;;;;17.72;47.01;103115.13;5268605;28;20024;-80
2021/03/30 09:35:52;;;;;;;28.75;11.43;;;;;;;17.94;49.21;103113.78;5267197;28;20024;-81
2021/03/30 09:38:23;;;;;;;28.52;11.98;;;;;;;18.08;46.91;103115.06;5267995;28;20023;-80
2021/03/30 09:40:53;;;;;;;27.73;11.68;;;;;;;18.18;45.29;103112.22;5267453;28;20073;-80
2021/03/30 09:43:24;;;;;;;27.08;13.15;;;;;;;18.37;49.04;103115.56;5267396;28;20028;-80
2021/03/30 09:45:55;;;;;;;32.05;12.77;;;;;;;18.50;46.78;103117.81;5267348;28;20016;-81
2021/03/30 09:48:26;;;;;;;29.55;12.57;;;;;;;18.63;45.33;103115.47;5266190;28;20099;-80
2021/03/30 09:50:57;;;;;;;30.58;13.18;;;;;;;18.80;46.17;103110.13;5266463;28;20520;-81
2021/03/30 09:53:40;;;;;;;33.38;13.07;;;;;;;18.99;46.33;103108.97;5267646;28;20036;-81
2021/03/30 09:56:20;;;;;;;29.33;12.73;;;;;;;19.19;45.28;103104.94;5267476;28;20032;-81
2021/03/30 09:58:57;;;;;;;30.77;13.05;;;;;;;19.27;46.31;103102.19;5267196;28;20454;-83
2021/03/30 10:01:28;;;;;;;33.40;13.63;;;;;;;19.31;43.56;103106.28;5269191;28;20036;-79
2021/03/30 10:03:59;;;;;;;30.35;12.80;;;;;;;19.50;43.40;103102.38;5267497;28;20024;-81
2021/03/30 10:06:29;;;;;;;26.20;11.70;;;;;;;19.71;42.82;103104.59;5271039;28;20055;-81
2021/03/30 10:09:07;;;;;;;34.33;13.75;;;;;;;19.81;42.86;103099.81;5271114;28;20032;-80
2021/03/30 10:11:38;;;;;;;30.60;12.27;;;;;;;20.04;40.00;103105.41;5269817;28;20103;-80
2021/03/30 10:14:21;;;;;;;30.05;13.77;;;;;;;20.09;40.74;103096.69;5270787;28;20135;-80
2021/03/30 10:16:54;;;;;;;25.75;12.13;;;;;;;20.21;41.50;103095.28;5271525;28;20039;-82
2021/03/30 10:19:25;;;;;;;26.27;11.77;;;;;;;20.26;40.84;103094.75;5260064;28;20020;-82
2021/03/30 10:21:55;;;;;;;21.67;11.35;;;;;;;20.47;39.88;103077.84;5272912;28;20385;-82
2021/03/30 10:24:26;;;;;;;24.42;12.07;;;;;;;20.67;40.02;103079.09;5269953;28;20107;-82
2021/03/30 10:27:05;;;;;;;26.02;10.98;;;;;;;20.94;37.16;103077.75;5267467;28;20481;-82
2021/03/30 10:29:41;;;;;;;24.17;10.82;;;;;;;21.06;35.42;103075.44;5274155;28;20050;-81
2021/03/30 10:32:16;;;;;;;26.23;11.65;;;;;;;20.87;36.88;103079.47;5273343;28;20019;-81
2021/03/30 10:34:47;;;;;;;27.40;12.00;;;;;;;20.86;37.42;103070.44;5273704;28;20024;-81
2021/03/30 10:37:19;;;;;;;25.67;12.15;;;;;;;20.85;38.21;103070.63;5271881;28;20024;-81
2021/03/30 10:39:49;;;;;;;22.92;11.05;;;;;;;20.99;36.08;103071.75;5274278;28;20024;-82
2021/03/30 10:42:19;;;;;;;23.95;11.30;;;;;;;21.12;33.94;103066.50;5272608;28;20039;-82
2021/03/30 10:45:00;;;;;;;25.55;11.60;;;;;;;20.94;32.55;103059.50;5272227;28;20024;-82
2021/03/30 10:47:33;;;;;;;23.42;11.80;;;;;;;20.97;37.56;103066.44;5272451;28;20016;-84
2021/03/30 10:50:08;;;;;;;22.17;10.90;;;;;;;21.33;35.96;103061.22;5272324;28;20489;-82
2021/03/30 10:52:39;;;;;;;24.45;11.10;;;;;;;21.35;31.87;103056.44;5272544;28;20030;-83
2021/03/30 10:55:16;;;;;;;23.70;11.32;;;;;;;21.40;32.46;103043.09;5273145;28;20027;-83
2021/03/30 10:57:47;;;;;;;23.70;11.30;;;;;;;21.49;31.53;103043.00;5272031;28;20153;-84
2021/03/30 11:00:18;;;;;;;21.73;11.13;;;;;;;21.48;32.47;103035.84;5273992;28;20119;-83
2021/03/30 11:02:49;;;;;;;20.25;10.18;;;;;;;21.55;30.94;103032.19;5272140;28;20035;-83
2021/03/30 11:05:19;;;;;;;21.13;9.93;;;;;;;21.63;31.69;103028.53;5272379;28;20489;-83
2021/03/30 11:07:50;;;;;;;22.58;10.85;;;;;;;21.67;32.47;103022.50;5272465;28;20028;-83
2021/03/30 11:10:23;;;;;;;21.15;10.20;;;;;;;21.89;31.53;103018.00;5272522;28;20074;-84
2021/03/30 11:12:53;;;;;;;19.75;9.25;;;;;;;21.89;31.91;103018.00;5271612;28;20074;-83
2021/03/30 11:15:24;;;;;;;19.65;10.48;;;;;;;21.98;33.18;103005.91;5271905;28;20101;-83
2021/03/30 11:17:54;;;;;;;19.13;9.75;;;;;;;22.26;34.14;103010.72;5271070;28;20038;-84
2021/03/30 11:20:25;;;;;;;19.63;10.00;;;;;;;22.41;32.13;103008.78;5249785;28;20085;-83
2021/03/30 11:22:56;;;;;;;20.40;9.55;;;;;;;22.53;31.66;103009.13;5270940;28;20016;-83
2021/03/30 11:25:27;;;;;;;21.65;9.55;;;;;;;22.72;30.23;102993.97;5273069;28;20020;-83
2021/03/30 11:28:04;;;;;;;17.75;8.68;;;;;;;22.69;32.10;102999.81;5271467;28;20499;-84
2021/03/30 11:30:40;;;;;;;18.40;9.38;;;;;;;22.64;29.07;103002.28;5270406;28;20107;-83
2021/03/30 11:33:21;;;;;;;20.40;9.43;;;;;;;22.53;30.40;102995.44;5270815;28;20024;-83
2021/03/30 11:35:56;;;;;;;15.73;8.18;;;;;;;22.62;30.74;102990.72;5269571;28;20024;-84
2021/03/30 11:38:26;;;;;;;18.92;9.50;;;;;;;22.77;31.81;102987.91;5271307;28;20503;-84
2021/03/30 11:40:57;;;;;;;19.27;8.43;;;;;;;22.97;30.24;102981.59;5272280;28;20107;-85